createdAt,value
2022-08-26T00:01:37.586Z,26.23
2022-08-26T00:04:19.809Z,25.58
2022-08-26T00:07:08.585Z,24.63
2022-08-26T00:09:54.392Z,25.98
2022-08-26T00:12:37.884Z,26.42
2022-08-26T00:15:35.432Z,25.98
2022-08-26T00:18:30.948Z,26.35
2022-08-26T00:21:20.867Z,24.97
2022-08-26T00:24:10.482Z,24.83
2022-08-26T00:26:59.242Z,23.17
2022-08-26T00:29:42.487Z,25.08
2022-08-26T00:32:30.908Z,25.10
2022-08-26T00:35:13.518Z,23.92
2022-08-26T00:38:09.580Z,22.50
2022-08-26T00:41:03.504Z,23.60
2022-08-26T00:43:52.470Z,22.95
2022-08-26T00:46:46.608Z,23.60
2022-08-26T00:49:59.486Z,22.88
2022-08-26T00:52:49.885Z,24.15
2022-08-26T00:55:52.484Z,24.30
2022-08-26T00:58:43.498Z,25.08
2022-08-26T01:01:29.269Z,24.65
2022-08-26T01:04:21.465Z,25.00
2022-08-26T01:07:03.905Z,24.58
2022-08-26T01:09:53.474Z,25.08
2022-08-26T01:12:40.168Z,25.50
2022-08-26T01:15:33.476Z,26.30
2022-08-26T01:18:23.942Z,24.85
2022-08-26T01:21:26.519Z,23.98
2022-08-26T01:24:17.472Z,23.88
2022-08-26T01:27:00.734Z,22.67
2022-08-26T01:32:33.925Z,21.70
2022-08-26T01:38:03.823Z,19.98
2022-08-26T01:40:54.538Z,19.73
2022-08-26T01:43:38.890Z,18.63
2022-08-26T01:46:30.489Z,18.70
2022-08-26T01:49:14.866Z,19.75
2022-08-26T01:52:06.497Z,22.15
2022-08-26T01:54:56.885Z,20.73
2022-08-26T01:57:39.625Z,19.48
2022-08-26T02:00:28.936Z,18.80
2022-08-26T02:03:25.521Z,18.88
2022-08-26T02:06:15.885Z,20.13
2022-08-26T02:09:02.580Z,17.98
2022-08-26T02:11:51.031Z,18.10
2022-08-26T02:14:43.693Z,16.73
2022-08-26T02:17:47.438Z,17.77
2022-08-26T02:20:37.486Z,17.92
2022-08-26T02:23:26.500Z,15.95
2022-08-26T02:26:28.477Z,15.02
2022-08-26T02:29:37.887Z,15.25
2022-08-26T02:32:19.495Z,14.50
2022-08-26T02:35:08.406Z,15.00
2022-08-26T02:37:52.616Z,15.93
2022-08-26T02:40:44.479Z,18.67
2022-08-26T02:43:33.597Z,22.42
2022-08-26T02:46:29.723Z,24.05
2022-08-26T02:49:11.957Z,25.90
2022-08-26T02:52:00.501Z,24.63
2022-08-26T02:54:50.477Z,25.50
2022-08-26T02:57:32.720Z,25.95
2022-08-26T03:00:25.623Z,26.63
2022-08-26T03:03:14.781Z,25.92
2022-08-26T03:05:57.629Z,25.50
2022-08-26T03:08:40.318Z,25.45
2022-08-26T03:11:32.869Z,26.60
2022-08-26T03:14:22.458Z,22.48
2022-08-26T03:17:19.492Z,23.25
2022-08-26T03:20:01.650Z,22.27
2022-08-26T03:22:51.480Z,22.73
2022-08-26T03:25:41.011Z,17.60
2022-08-26T03:28:22.518Z,15.85
2022-08-26T03:31:10.899Z,14.27
2022-08-26T03:33:53.359Z,12.27
2022-08-26T03:36:37.595Z,14.50
2022-08-26T03:39:27.573Z,14.40
2022-08-26T03:42:14.005Z,13.15
2022-08-26T03:45:02.587Z,9.75
2022-08-26T03:47:51.879Z,10.38
2022-08-26T03:50:35.896Z,11.57
2022-08-26T03:53:24.922Z,14.20
2022-08-26T03:56:06.587Z,14.20
2022-08-26T03:58:48.734Z,14.35
2022-08-26T04:01:39.638Z,13.35
2022-08-26T04:04:22.888Z,11.35
2022-08-26T04:07:14.591Z,10.88
2022-08-26T04:10:04.859Z,10.07
2022-08-26T04:12:47.557Z,9.77
2022-08-26T04:15:30.162Z,13.57
2022-08-26T04:18:25.508Z,11.30
2022-08-26T04:21:21.597Z,10.40
2022-08-26T04:24:03.919Z,12.88
2022-08-26T04:26:52.597Z,13.98
2022-08-26T04:29:34.877Z,15.38
2022-08-26T04:32:24.555Z,14.23
2022-08-26T04:35:06.890Z,15.48
2022-08-26T04:37:56.613Z,15.02
2022-08-26T04:40:39.890Z,15.50
2022-08-26T04:43:38.583Z,16.38
2022-08-26T04:46:32.791Z,16.08
2022-08-26T04:49:15.318Z,15.07
2022-08-26T04:52:04.831Z,15.68
2022-08-26T04:54:53.810Z,14.80
2022-08-26T04:57:35.498Z,15.27
2022-08-26T05:00:25.884Z,14.23
2022-08-26T05:03:10.620Z,15.00
2022-08-26T05:05:59.792Z,14.88
2022-08-26T05:08:41.626Z,14.93
2022-08-26T05:11:30.604Z,11.52
2022-08-26T05:14:13.639Z,11.85
2022-08-26T05:16:55.812Z,12.35
2022-08-26T05:19:45.600Z,12.52
2022-08-26T05:22:40.499Z,13.13
2022-08-26T05:25:29.535Z,13.90
2022-08-26T05:28:33.442Z,16.23
2022-08-26T05:31:25.656Z,19.25
2022-08-26T05:34:09.501Z,22.05
2022-08-26T05:36:58.889Z,20.60
2022-08-26T05:39:41.280Z,18.48
2022-08-26T05:42:32.581Z,18.10
2022-08-26T05:45:22.599Z,17.58
2022-08-26T05:48:04.582Z,17.45
2022-08-26T05:50:51.569Z,15.43
2022-08-26T05:53:40.493Z,17.33
2022-08-26T05:56:32.844Z,14.73
2022-08-26T05:59:23.889Z,13.95
2022-08-26T06:02:08.407Z,11.73
2022-08-26T06:04:57.475Z,11.70
2022-08-26T06:08:10.657Z,11.40
2022-08-26T06:11:01.108Z,8.75
2022-08-26T06:13:51.482Z,9.50
2022-08-26T06:16:46.746Z,9.90
2022-08-26T06:19:32.987Z,9.20
2022-08-26T06:22:50.474Z,7.50
2022-08-26T06:25:49.573Z,7.47
2022-08-26T06:28:38.487Z,6.88
2022-08-26T06:31:28.642Z,7.43
2022-08-26T06:34:11.818Z,7.57
2022-08-26T06:37:01.973Z,7.07
2022-08-26T06:39:51.186Z,5.97
2022-08-26T06:42:34.579Z,6.70
2022-08-26T06:45:16.707Z,7.85
2022-08-26T06:48:05.660Z,8.35
2022-08-26T06:50:49.963Z,6.55
2022-08-26T06:53:38.611Z,5.20
2022-08-26T06:56:26.417Z,5.47
2022-08-26T06:59:16.579Z,5.38
2022-08-26T07:02:06.533Z,5.13
2022-08-26T07:04:57.504Z,4.90
2022-08-26T07:07:45.855Z,4.50
2022-08-26T07:10:27.529Z,4.60
2022-08-26T07:13:17.464Z,4.60
2022-08-26T07:16:19.536Z,5.38
2022-08-26T07:19:11.016Z,4.35
2022-08-26T07:21:53.572Z,4.95
2022-08-26T07:24:45.928Z,4.55
2022-08-26T07:27:28.602Z,4.60
2022-08-26T07:30:17.881Z,4.70
2022-08-26T07:33:00.585Z,4.45
2022-08-26T07:35:43.443Z,5.82
2022-08-26T07:38:32.585Z,4.80
2022-08-26T07:41:25.625Z,4.30
2022-08-26T07:44:14.486Z,4.10
2022-08-26T07:47:02.905Z,4.10
2022-08-26T07:49:52.898Z,4.30
2022-08-26T07:52:44.460Z,4.43
2022-08-26T07:55:29.597Z,5.13
2022-08-26T07:58:19.885Z,4.10
2022-08-26T08:01:01.645Z,3.92
2022-08-26T08:03:52.515Z,4.70
2022-08-26T08:06:35.593Z,4.18
2022-08-26T08:09:25.564Z,3.88
2022-08-26T08:12:07.839Z,3.85
2022-08-26T08:15:02.576Z,4.00
2022-08-26T08:17:45.910Z,4.07
2022-08-26T08:20:35.470Z,3.95
2022-08-26T08:23:25.560Z,4.82
2022-08-26T08:26:25.645Z,4.25
2022-08-26T08:29:14.870Z,3.92
2022-08-26T08:31:58.004Z,3.78
2022-08-26T08:34:47.935Z,4.72
2022-08-26T08:37:30.485Z,4.25
2022-08-26T08:40:26.640Z,4.15
2022-08-26T08:43:31.623Z,3.83
2022-08-26T08:46:25.910Z,3.70
2022-08-26T08:49:11.594Z,3.20
2022-08-26T08:51:56.539Z,3.50
2022-08-26T08:54:47.486Z,15.38
2022-08-26T08:57:38.686Z,14.55
2022-08-26T09:00:33.857Z,12.80
2022-08-26T09:03:38.600Z,12.88
2022-08-26T09:06:28.473Z,9.98
2022-08-26T09:09:25.573Z,8.00
2022-08-26T09:12:16.488Z,7.80
2022-08-26T09:15:30.184Z,6.28
2022-08-26T09:18:38.214Z,5.80
2022-08-26T09:21:31.500Z,5.82
2022-08-26T09:24:15.104Z,6.13
2022-08-26T09:27:14.593Z,7.15
2022-08-26T09:30:14.404Z,9.15
2022-08-26T09:33:19.629Z,8.82
2022-08-26T09:36:41.392Z,8.23
2022-08-26T09:39:37.732Z,8.38
2022-08-26T09:42:28.875Z,8.95
2022-08-26T09:45:20.489Z,8.35
2022-08-26T09:48:04.918Z,9.52
2022-08-26T09:51:06.614Z,9.35
2022-08-26T09:54:02.916Z,8.13
2022-08-26T09:56:54.590Z,8.75
2022-08-26T09:59:40.042Z,9.27
2022-08-26T10:02:39.605Z,9.25
2022-08-26T10:05:26.859Z,9.95
2022-08-26T10:08:47.561Z,9.85
2022-08-26T10:11:48.886Z,8.68
2022-08-26T10:14:49.534Z,10.15
2022-08-26T10:17:44.564Z,9.40
2022-08-26T10:20:44.909Z,8.27
2022-08-26T10:23:33.607Z,8.15
2022-08-26T10:26:30.257Z,8.40
2022-08-26T10:29:31.487Z,7.55
2022-08-26T10:32:30.961Z,9.18
2022-08-26T10:35:22.586Z,8.30
2022-08-26T10:38:11.916Z,7.78
2022-08-26T10:41:13.570Z,7.75
2022-08-26T10:44:07.899Z,7.28
2022-08-26T10:47:04.577Z,7.70
2022-08-26T10:49:49.828Z,8.48
2022-08-26T10:52:50.578Z,7.85
2022-08-26T10:55:47.752Z,9.95
2022-08-26T10:58:46.623Z,8.27
2022-08-26T11:01:51.118Z,9.35
2022-08-26T11:04:47.724Z,9.43
2022-08-26T11:08:03.503Z,9.23
2022-08-26T11:11:02.491Z,10.98
2022-08-26T11:14:07.940Z,9.73
2022-08-26T11:17:01.535Z,9.07
2022-08-26T11:20:00.266Z,9.60
2022-08-26T11:22:51.572Z,8.77
2022-08-26T11:25:34.857Z,9.98
2022-08-26T11:28:47.573Z,8.57
2022-08-26T11:31:42.550Z,8.77
2022-08-26T11:35:12.508Z,9.57
2022-08-26T11:38:30.485Z,8.10
2022-08-26T11:41:31.087Z,8.48
2022-08-26T11:44:25.483Z,9.15
2022-08-26T11:47:11.838Z,8.63
2022-08-26T11:50:15.511Z,8.75
2022-08-26T11:53:07.721Z,7.88
2022-08-26T11:55:58.492Z,8.45
2022-08-26T11:58:41.444Z,7.78
2022-08-26T12:01:36.554Z,7.97
2022-08-26T12:04:35.010Z,7.10
2022-08-26T12:07:24.678Z,8.43
2022-08-26T12:10:11.776Z,8.55
2022-08-26T12:13:05.713Z,9.02
2022-08-26T12:15:47.912Z,8.95
2022-08-26T12:18:40.534Z,7.93
2022-08-26T12:21:42.453Z,7.60
2022-08-26T12:24:30.882Z,7.18
2022-08-26T12:27:37.581Z,8.50
2022-08-26T12:30:31.103Z,8.48
2022-08-26T12:33:29.628Z,8.73
2022-08-26T12:36:18.951Z,10.23
2022-08-26T12:39:01.613Z,12.48
2022-08-26T12:41:57.945Z,13.35
2022-08-26T12:44:54.731Z,13.52
2022-08-26T12:47:45.084Z,13.02
2022-08-26T12:50:39.527Z,11.85
2022-08-26T12:53:33.490Z,12.00
2022-08-26T12:56:40.611Z,12.68
2022-08-26T12:59:34.622Z,12.40
2022-08-26T13:02:23.650Z,12.45
2022-08-26T13:05:11.765Z,13.23
2022-08-26T13:08:20.629Z,13.75
2022-08-26T13:11:16.652Z,13.85
2022-08-26T13:14:09.795Z,14.40
2022-08-26T13:16:59.604Z,13.73
2022-08-26T13:19:41.867Z,15.18
2022-08-26T13:22:32.598Z,17.45
2022-08-26T13:25:15.335Z,16.42
2022-08-26T13:28:08.517Z,16.05
2022-08-26T13:30:55.009Z,16.10
2022-08-26T13:33:44.542Z,16.67
2022-08-26T13:36:39.481Z,16.88
2022-08-26T13:39:35.606Z,17.20
2022-08-26T13:42:25.172Z,17.73
2022-08-26T13:45:14.510Z,17.65
2022-08-26T13:48:03.613Z,18.58
2022-08-26T13:50:52.524Z,18.77
2022-08-26T13:53:41.642Z,19.02
2022-08-26T13:56:31.564Z,19.08
2022-08-26T13:59:20.641Z,18.10
2022-08-26T14:02:11.632Z,17.95
2022-08-26T14:05:01.716Z,16.75
2022-08-26T14:07:43.862Z,15.68
2022-08-26T14:10:32.640Z,17.20
2022-08-26T14:13:15.404Z,16.75
2022-08-26T14:16:06.608Z,17.27
2022-08-26T14:18:56.594Z,16.65
2022-08-26T14:21:42.020Z,17.05
2022-08-26T14:24:30.517Z,15.18
2022-08-26T14:27:19.604Z,14.93
2022-08-26T14:30:01.903Z,15.15
2022-08-26T14:32:53.608Z,15.90
2022-08-26T14:35:35.895Z,14.70
2022-08-26T14:38:24.588Z,14.05
2022-08-26T14:41:20.468Z,14.52
2022-08-26T14:44:18.593Z,13.25
2022-08-26T14:47:08.634Z,13.45
2022-08-26T14:49:50.759Z,12.25
2022-08-26T14:52:59.731Z,13.00
2022-08-26T14:55:43.316Z,13.25
2022-08-26T14:58:35.030Z,13.55
2022-08-26T15:01:17.725Z,15.18
2022-08-26T15:04:06.924Z,18.65
2022-08-26T15:06:49.604Z,16.48
2022-08-26T15:09:39.554Z,16.95
2022-08-26T15:12:30.102Z,18.35
2022-08-26T15:15:15.584Z,17.23
2022-08-26T15:18:04.745Z,17.63
2022-08-26T15:20:46.921Z,18.73
2022-08-26T15:23:35.621Z,17.95
2022-08-26T15:26:26.606Z,19.58
2022-08-26T15:29:15.743Z,18.38
2022-08-26T15:31:59.121Z,19.08
2022-08-26T15:34:47.708Z,18.73
2022-08-26T15:37:30.005Z,20.67
2022-08-26T15:40:26.600Z,18.42
2022-08-26T15:43:28.668Z,17.95
2022-08-26T15:46:27.743Z,18.25
2022-08-26T15:49:18.650Z,17.95
2022-08-26T15:52:04.228Z,19.23
2022-08-26T15:54:47.857Z,19.33
2022-08-26T15:57:38.645Z,21.10
2022-08-26T16:00:28.564Z,20.70
2022-08-26T16:03:18.608Z,20.98
2022-08-26T16:06:38.979Z,20.48
2022-08-26T16:09:27.613Z,19.83
2022-08-26T16:12:09.973Z,19.15
2022-08-26T16:15:10.646Z,21.35
2022-08-26T16:17:52.955Z,21.08
2022-08-26T16:20:41.587Z,21.90
2022-08-26T16:23:45.347Z,20.55
2022-08-26T16:26:37.608Z,20.67
2022-08-26T16:29:26.814Z,21.08
2022-08-26T16:32:16.666Z,22.02
2022-08-26T16:35:06.854Z,20.08
2022-08-26T16:37:49.673Z,24.50
2022-08-26T16:40:52.536Z,25.35
2022-08-26T16:43:51.471Z,25.03
2022-08-26T16:46:49.788Z,25.42
2022-08-26T16:49:34.716Z,26.58
2022-08-26T16:52:24.872Z,27.95
2022-08-26T16:55:22.606Z,27.52
2022-08-26T16:58:04.914Z,32.30
2022-08-26T17:00:53.594Z,31.85
2022-08-26T17:03:35.984Z,35.55
2022-08-26T17:06:24.669Z,34.35
2022-08-26T17:09:06.969Z,35.78
2022-08-26T17:11:58.749Z,37.90
2022-08-26T17:14:49.538Z,37.22
2022-08-26T17:17:38.676Z,33.38
2022-08-26T17:20:23.398Z,31.30
2022-08-26T17:23:15.908Z,25.27
2022-08-26T17:26:02.159Z,23.25
2022-08-26T17:28:51.580Z,22.17
2022-08-26T17:31:33.809Z,20.35
2022-08-26T17:34:22.570Z,17.48
2022-08-26T17:37:04.880Z,16.52
2022-08-26T17:39:53.587Z,17.00
2022-08-26T17:42:35.869Z,17.25
2022-08-26T17:45:32.558Z,14.77
2022-08-26T17:48:15.792Z,14.98
2022-08-26T17:51:07.703Z,14.82
2022-08-26T17:53:59.650Z,15.00
2022-08-26T17:56:41.905Z,13.88
2022-08-26T17:59:30.836Z,14.75
2022-08-26T18:02:12.932Z,15.00
2022-08-26T18:05:01.559Z,16.00
2022-08-26T18:07:44.298Z,15.02
2022-08-26T18:10:35.499Z,15.45
2022-08-26T18:13:18.855Z,16.35
2022-08-26T18:16:11.669Z,16.17
2022-08-26T18:19:01.578Z,16.25
2022-08-26T18:21:52.917Z,16.25
2022-08-26T18:24:37.565Z,15.32
2022-08-26T18:27:26.483Z,15.77
2022-08-26T18:30:10.494Z,15.75
2022-08-26T18:33:01.527Z,16.10
2022-08-26T18:35:53.738Z,14.65
2022-08-26T18:38:45.273Z,15.18
2022-08-26T18:41:30.870Z,16.25
2022-08-26T18:44:20.582Z,14.35
2022-08-26T18:47:16.481Z,15.10
2022-08-26T18:50:05.615Z,14.50
2022-08-26T18:52:47.976Z,14.50
2022-08-26T18:55:36.550Z,14.70
2022-08-26T18:58:18.827Z,14.63
2022-08-26T19:01:07.543Z,13.93
2022-08-26T19:03:56.548Z,15.45
2022-08-26T19:06:46.489Z,15.48
2022-08-26T19:09:36.479Z,13.80
2022-08-26T19:12:27.070Z,13.80
2022-08-26T19:15:10.464Z,14.80
2022-08-26T19:17:59.919Z,13.40
2022-08-26T19:20:46.372Z,14.90
2022-08-26T19:23:31.842Z,13.65
2022-08-26T19:26:23.569Z,14.18
2022-08-26T19:29:05.951Z,13.20
2022-08-26T19:31:54.611Z,13.35
2022-08-26T19:34:37.419Z,13.25
2022-08-26T19:37:27.552Z,12.93
2022-08-26T19:40:17.898Z,12.95
2022-08-26T19:43:00.570Z,13.85
2022-08-26T19:45:55.429Z,12.45
2022-08-26T19:48:55.267Z,12.27
2022-08-26T19:51:44.563Z,13.73
2022-08-26T19:54:26.980Z,11.20
2022-08-26T19:57:15.832Z,11.98
2022-08-26T19:59:57.830Z,11.93
2022-08-26T20:02:47.580Z,11.93
2022-08-26T20:05:31.853Z,11.15
2022-08-26T20:08:22.215Z,10.13
2022-08-26T20:11:10.114Z,10.73
2022-08-26T20:13:58.532Z,11.75
2022-08-26T20:16:47.483Z,10.32
2022-08-26T20:19:54.594Z,10.27
2022-08-26T20:22:38.761Z,10.77
2022-08-26T20:25:27.512Z,10.98
2022-08-26T20:28:10.300Z,11.05
2022-08-26T20:30:59.612Z,10.75
2022-08-26T20:33:48.579Z,11.57
2022-08-26T20:36:37.589Z,11.52
2022-08-26T20:39:28.508Z,11.98
2022-08-26T20:42:20.134Z,11.00
2022-08-26T20:45:02.841Z,12.20
2022-08-26T20:47:51.597Z,12.13
2022-08-26T20:50:41.525Z,10.85
2022-08-26T20:53:30.676Z,11.20
2022-08-26T20:56:14.905Z,11.07
2022-08-26T20:59:06.518Z,11.57
2022-08-26T21:01:56.583Z,11.35
2022-08-26T21:04:38.789Z,11.07
2022-08-26T21:07:28.512Z,10.70
2022-08-26T21:10:13.046Z,11.55
2022-08-26T21:13:02.510Z,12.23
2022-08-26T21:15:50.833Z,11.68
2022-08-26T21:18:33.673Z,12.10
2022-08-26T21:21:24.980Z,12.57
2022-08-26T21:24:08.603Z,12.75
2022-08-26T21:26:56.894Z,12.35
2022-08-26T21:29:38.604Z,13.63
2022-08-26T21:32:20.740Z,12.07
2022-08-26T21:35:13.568Z,13.23
2022-08-26T21:38:01.892Z,13.80
2022-08-26T21:40:43.588Z,13.75
2022-08-26T21:43:34.747Z,12.98
2022-08-26T21:46:22.570Z,13.52
2022-08-26T21:49:21.452Z,13.55
2022-08-26T21:52:14.586Z,14.93
2022-08-26T21:55:03.600Z,13.93
2022-08-26T21:57:50.806Z,15.55
2022-08-26T22:00:39.590Z,14.00
2022-08-26T22:03:27.981Z,14.18
2022-08-26T22:06:14.514Z,13.82
2022-08-26T22:11:54.492Z,14.93
2022-08-26T22:14:43.654Z,13.32
2022-08-26T22:17:28.106Z,13.57
2022-08-26T22:20:17.633Z,11.98
2022-08-26T22:22:59.953Z,12.20
2022-08-26T22:25:48.574Z,12.80
2022-08-26T22:28:30.810Z,12.27
2022-08-26T22:31:21.707Z,12.55
2022-08-26T22:34:16.512Z,12.98
2022-08-26T22:37:05.478Z,12.75
2022-08-26T22:39:54.532Z,13.25
2022-08-26T22:42:43.045Z,12.48
2022-08-26T22:45:39.631Z,13.13
2022-08-26T22:48:38.457Z,13.25
2022-08-26T22:51:35.582Z,13.65
2022-08-26T22:54:24.496Z,14.38
2022-08-26T22:57:13.591Z,13.50
2022-08-26T23:00:02.515Z,14.48
2022-08-26T23:02:44.893Z,14.30
2022-08-26T23:05:33.570Z,14.77
2022-08-26T23:08:17.898Z,15.55
2022-08-26T23:11:06.489Z,17.02
2022-08-26T23:13:48.959Z,17.35
2022-08-26T23:16:39.500Z,16.10
2022-08-26T23:19:23.892Z,16.63
2022-08-26T23:22:12.589Z,17.17
2022-08-26T23:24:54.763Z,18.13
2022-08-26T23:27:47.636Z,17.42
2022-08-26T23:30:42.494Z,17.70
2022-08-26T23:33:50.678Z,19.20
2022-08-26T23:36:34.376Z,18.77
2022-08-26T23:39:16.978Z,19.23
2022-08-26T23:42:05.641Z,21.25
2022-08-26T23:44:47.872Z,20.70
2022-08-26T23:47:36.606Z,22.77
2022-08-26T23:50:27.563Z,20.55
2022-08-26T23:53:16.594Z,19.52
2022-08-26T23:55:58.782Z,18.90
2022-08-26T23:58:47.494Z,17.55
